sensor_id;sensor_type;location;lat;lon;timestamp;pressure;altitude;pressure_sealevel;temperature;humidity
76108;BME280;64834;52.516;10.528;2022-12-01T00:00:47;102130.13;;;2.40;92.66
76108;BME280;64834;52.516;10.528;2022-12-01T00:03:12;102133.53;;;2.48;92.78
76108;BME280;64834;52.516;10.528;2022-12-01T00:05:37;102127.34;;;2.38;92.61
76108;BME280;64834;52.516;10.528;2022-12-01T00:08:03;102130.91;;;2.32;92.84
76108;BME280;64834;52.516;10.528;2022-12-01T00:10:31;102122.66;;;2.27;92.96
76108;BME280;64834;52.516;10.528;2022-12-01T00:12:58;102125.94;;;2.33;92.64
76108;BME280;64834;52.516;10.528;2022-12-01T00:15:26;102125.94;;;2.33;92.60
76108;BME280;64834;52.516;10.528;2022-12-01T00:17:51;102122.84;;;2.29;92.68
76108;BME280;64834;52.516;10.528;2022-12-01T00:20:17;102135.38;;;2.26;92.92
76108;BME280;64834;52.516;10.528;2022-12-01T00:22:47;102131.03;;;2.17;93.02
76108;BME280;64834;52.516;10.528;2022-12-01T00:25:14;102133.47;;;2.16;93.06
76108;BME280;64834;52.516;10.528;2022-12-01T00:27:39;102134.59;;;2.11;93.06
76108;BME280;64834;52.516;10.528;2022-12-01T00:30:07;102129.84;;;2.07;93.06
76108;BME280;64834;52.516;10.528;2022-12-01T00:32:32;102135.91;;;2.07;93.13
76108;BME280;64834;52.516;10.528;2022-12-01T00:34:58;102135.88;;;2.14;92.81
76108;BME280;64834;52.516;10.528;2022-12-01T00:37:23;102135.25;;;2.01;92.80
76108;BME280;64834;52.516;10.528;2022-12-01T00:39:49;102138.00;;;2.03;92.66
76108;BME280;64834;52.516;10.528;2022-12-01T00:42:14;102133.59;;;2.02;92.84
76108;BME280;64834;52.516;10.528;2022-12-01T00:44:39;102135.00;;;2.07;92.56
76108;BME280;64834;52.516;10.528;2022-12-01T00:47:05;102138.22;;;1.97;92.75
76108;BME280;64834;52.516;10.528;2022-12-01T00:49:30;102138.63;;;1.93;92.77
76108;BME280;64834;52.516;10.528;2022-12-01T00:51:56;102132.75;;;1.87;93.09
76108;BME280;64834;52.516;10.528;2022-12-01T00:54:21;102144.31;;;1.98;92.09
76108;BME280;64834;52.516;10.528;2022-12-01T00:56:46;102146.94;;;1.91;92.24
76108;BME280;64834;52.516;10.528;2022-12-01T00:59:12;102151.97;;;1.82;92.35
76108;BME280;64834;52.516;10.528;2022-12-01T01:01:37;102147.00;;;1.83;92.46
76108;BME280;64834;52.516;10.528;2022-12-01T01:04:03;102149.84;;;1.71;92.54
76108;BME280;64834;52.516;10.528;2022-12-01T01:06:28;102154.81;;;1.76;92.71
76108;BME280;64834;52.516;10.528;2022-12-01T01:08:54;102155.66;;;1.84;92.56
76108;BME280;64834;52.516;10.528;2022-12-01T01:11:19;102157.00;;;1.73;92.69
76108;BME280;64834;52.516;10.528;2022-12-01T01:13:44;102157.59;;;1.71;92.81
76108;BME280;64834;52.516;10.528;2022-12-01T01:16:17;102166.09;;;1.62;92.71
76108;BME280;64834;52.516;10.528;2022-12-01T01:18:44;102167.75;;;1.62;92.52
76108;BME280;64834;52.516;10.528;2022-12-01T01:21:12;102168.19;;;1.58;92.97
76108;BME280;64834;52.516;10.528;2022-12-01T01:23:38;102168.50;;;1.61;92.83
76108;BME280;64834;52.516;10.528;2022-12-01T01:26:07;102168.47;;;1.68;92.81
76108;BME280;64834;52.516;10.528;2022-12-01T01:28:32;102164.81;;;1.66;92.36
76108;BME280;64834;52.516;10.528;2022-12-01T01:30:58;102168.56;;;1.54;93.04
76108;BME280;64834;52.516;10.528;2022-12-01T01:33:24;102167.31;;;1.43;93.34
76108;BME280;64834;52.516;10.528;2022-12-01T01:35:49;102166.06;;;1.40;93.75
76108;BME280;64834;52.516;10.528;2022-12-01T01:38:14;102169.59;;;1.33;93.88
76108;BME280;64834;52.516;10.528;2022-12-01T01:40:44;102162.94;;;1.35;93.78
76108;BME280;64834;52.516;10.528;2022-12-01T01:43:13;102173.84;;;1.25;94.11
76108;BME280;64834;52.516;10.528;2022-12-01T01:45:40;102180.50;;;1.23;94.26
76108;BME280;64834;52.516;10.528;2022-12-01T01:48:05;102180.16;;;1.20;94.19
76108;BME280;64834;52.516;10.528;2022-12-01T01:50:32;102166.69;;;1.23;94.43
76108;BME280;64834;52.516;10.528;2022-12-01T01:53:03;102170.94;;;1.22;94.07
76108;BME280;64834;52.516;10.528;2022-12-01T01:55:31;102171.25;;;1.25;93.83
76108;BME280;64834;52.516;10.528;2022-12-01T01:57:57;102179.56;;;1.23;94.00
76108;BME280;64834;52.516;10.528;2022-12-01T02:00:24;102170.34;;;1.25;93.86
76108;BME280;64834;52.516;10.528;2022-12-01T02:02:50;102181.25;;;1.22;93.62
76108;BME280;64834;52.516;10.528;2022-12-01T02:05:27;102170.78;;;1.14;93.47
76108;BME280;64834;52.516;10.528;2022-12-01T02:07:55;102171.00;;;1.08;93.69
76108;BME280;64834;52.516;10.528;2022-12-01T02:11:13;102170.06;;;1.07;93.45
76108;BME280;64834;52.516;10.528;2022-12-01T02:13:37;102165.88;;;0.94;93.68
76108;BME280;64834;52.516;10.528;2022-12-01T02:19:04;102172.53;;;0.85;93.64
76108;BME280;64834;52.516;10.528;2022-12-01T02:21:46;102182.09;;;0.86;93.67
76108;BME280;64834;52.516;10.528;2022-12-01T02:30:09;102178.97;;;0.88;93.65
76108;BME280;64834;52.516;10.528;2022-12-01T02:32:42;102176.78;;;0.84;94.02
76108;BME280;64834;52.516;10.528;2022-12-01T02:35:29;102187.63;;;0.74;94.38
76108;BME280;64834;52.516;10.528;2022-12-01T02:41:07;102183.22;;;0.73;94.46
76108;BME280;64834;52.516;10.528;2022-12-01T02:43:43;102183.00;;;0.86;94.14
76108;BME280;64834;52.516;10.528;2022-12-01T02:46:36;102187.22;;;0.93;94.00
76108;BME280;64834;52.516;10.528;2022-12-01T02:49:07;102183.38;;;0.89;93.99
76108;BME280;64834;52.516;10.528;2022-12-01T02:51:36;102184.31;;;0.83;94.41
76108;BME280;64834;52.516;10.528;2022-12-01T02:54:04;102187.44;;;0.80;94.15
76108;BME280;64834;52.516;10.528;2022-12-01T02:56:30;102186.34;;;0.78;93.95
76108;BME280;64834;52.516;10.528;2022-12-01T02:58:55;102174.00;;;0.75;94.33
76108;BME280;64834;52.516;10.528;2022-12-01T03:04:01;102174.75;;;0.74;94.01
76108;BME280;64834;52.516;10.528;2022-12-01T03:06:58;102183.94;;;0.79;94.37
76108;BME280;64834;52.516;10.528;2022-12-01T03:09:45;102184.66;;;0.93;93.67
76108;BME280;64834;52.516;10.528;2022-12-01T03:12:34;102181.03;;;0.76;93.59
76108;BME280;64834;52.516;10.528;2022-12-01T03:15:09;102186.34;;;0.78;93.39
76108;BME280;64834;52.516;10.528;2022-12-01T03:17:52;102187.81;;;0.83;93.37
76108;BME280;64834;52.516;10.528;2022-12-01T03:20:24;102184.31;;;0.83;93.63
76108;BME280;64834;52.516;10.528;2022-12-01T03:22:59;102179.53;;;0.78;93.82
76108;BME280;64834;52.516;10.528;2022-12-01T03:25:29;102182.28;;;0.80;93.39
76108;BME280;64834;52.516;10.528;2022-12-01T03:27:56;102185.78;;;0.80;93.36
76108;BME280;64834;52.516;10.528;2022-12-01T03:30:23;102190.56;;;0.85;93.20
76108;BME280;64834;52.516;10.528;2022-12-01T03:32:55;102190.56;;;0.85;92.78
76108;BME280;64834;52.516;10.528;2022-12-01T03:35:29;102179.53;;;0.78;93.04
76108;BME280;64834;52.516;10.528;2022-12-01T03:38:11;102188.75;;;0.84;93.37
76108;BME280;64834;52.516;10.528;2022-12-01T03:40:38;102187.84;;;0.76;93.26
76108;BME280;64834;52.516;10.528;2022-12-01T03:43:09;102197.03;;;0.74;93.24
76108;BME280;64834;52.516;10.528;2022-12-01T03:45:57;102181.75;;;0.68;93.65
76108;BME280;64834;52.516;10.528;2022-12-01T03:48:25;102191.13;;;0.75;93.63
76108;BME280;64834;52.516;10.528;2022-12-01T03:51:13;102182.84;;;0.77;93.25
76108;BME280;64834;52.516;10.528;2022-12-01T03:56:23;102191.88;;;0.74;93.49
76108;BME280;64834;52.516;10.528;2022-12-01T03:58:51;102185.47;;;0.70;93.86
76108;BME280;64834;52.516;10.528;2022-12-01T04:01:19;102186.72;;;0.74;93.93
76108;BME280;64834;52.516;10.528;2022-12-01T04:03:46;102184.69;;;0.78;93.73
76108;BME280;64834;52.516;10.528;2022-12-01T04:06:12;102182.47;;;0.74;93.28
76108;BME280;64834;52.516;10.528;2022-12-01T04:08:38;102186.72;;;0.74;93.29
76108;BME280;64834;52.516;10.528;2022-12-01T04:11:03;102191.69;;;0.79;93.32
76108;BME280;64834;52.516;10.528;2022-12-01T04:13:49;102183.41;;;0.75;93.46
76108;BME280;64834;52.516;10.528;2022-12-01T04:16:14;102187.84;;;0.76;93.52
76108;BME280;64834;52.516;10.528;2022-12-01T04:18:39;102190.63;;;0.63;94.10
76108;BME280;64834;52.516;10.528;2022-12-01T04:21:05;102186.53;;;0.72;93.96
76108;BME280;64834;52.516;10.528;2022-12-01T04:23:30;102192.63;;;0.66;94.17
76108;BME280;64834;52.516;10.528;2022-12-01T04:26:14;102195.03;;;0.57;94.25
76108;BME280;64834;52.516;10.528;2022-12-01T04:28:39;102188.75;;;0.62;94.65
76108;BME280;64834;52.516;10.528;2022-12-01T04:31:04;102185.66;;;0.65;93.94
76108;BME280;64834;52.516;10.528;2022-12-01T04:33:29;102192.81;;;0.60;93.83
76108;BME280;64834;52.516;10.528;2022-12-01T04:35:57;102187.31;;;0.57;93.88
76108;BME280;64834;52.516;10.528;2022-12-01T04:38:22;102191.53;;;0.57;93.96
76108;BME280;64834;52.516;10.528;2022-12-01T04:40:48;102189.34;;;0.52;93.96
76108;BME280;64834;52.516;10.528;2022-12-01T04:43:13;102192.09;;;0.54;93.44
76108;BME280;64834;52.516;10.528;2022-12-01T04:45:38;102191.19;;;0.46;93.25
76108;BME280;64834;52.516;10.528;2022-12-01T04:48:04;102187.31;;;0.36;93.35
76108;BME280;64834;52.516;10.528;2022-12-01T04:50:29;102200.19;;;0.43;93.15
76108;BME280;64834;52.516;10.528;2022-12-01T04:52:55;102200.03;;;0.34;93.49
76108;BME280;64834;52.516;10.528;2022-12-01T04:55:20;102202.59;;;0.34;93.41
76108;BME280;64834;52.516;10.528;2022-12-01T04:57:46;102203.34;;;0.33;93.70
76108;BME280;64834;52.516;10.528;2022-12-01T05:00:12;102205.72;;;0.39;93.17
76108;BME280;64834;52.516;10.528;2022-12-01T05:02:41;102204.81;;;0.38;93.69
76108;BME280;64834;52.516;10.528;2022-12-01T05:05:08;102202.03;;;0.37;93.47
76108;BME280;64834;52.516;10.528;2022-12-01T05:07:34;102201.50;;;0.39;93.23
76108;BME280;64834;52.516;10.528;2022-12-01T05:09:59;102204.81;;;0.38;93.65
76108;BME280;64834;52.516;10.528;2022-12-01T05:12:24;102207.56;;;0.40;93.59
76108;BME280;64834;52.516;10.528;2022-12-01T05:14:50;102202.78;;;0.36;93.88
76108;BME280;64834;52.516;10.528;2022-12-01T05:17:15;102209.94;;;0.31;94.11
76108;BME280;64834;52.516;10.528;2022-12-01T05:19:40;102213.63;;;0.40;94.01
76108;BME280;64834;52.516;10.528;2022-12-01T05:22:24;102211.41;;;0.43;93.80
76108;BME280;64834;52.516;10.528;2022-12-01T05:24:49;102212.31;;;0.44;93.49
76108;BME280;64834;52.516;10.528;2022-12-01T05:27:15;102215.09;;;0.31;93.57
76108;BME280;64834;52.516;10.528;2022-12-01T05:29:40;102213.63;;;0.26;93.39
76108;BME280;64834;52.516;10.528;2022-12-01T05:32:05;102217.13;;;0.26;93.43
76108;BME280;64834;52.516;10.528;2022-12-01T05:34:31;102220.78;;;0.29;93.70
76108;BME280;64834;52.516;10.528;2022-12-01T05:36:56;102217.88;;;0.25;93.44
76108;BME280;64834;52.516;10.528;2022-12-01T05:39:21;102214.56;;;0.26;93.99
76108;BME280;64834;52.516;10.528;2022-12-01T05:41:47;102224.47;;;0.23;94.08
76108;BME280;64834;52.516;10.528;2022-12-01T05:44:12;102224.47;;;0.23;94.51
76108;BME280;64834;52.516;10.528;2022-12-01T05:46:37;102225.59;;;0.25;94.50
76108;BME280;64834;52.516;10.528;2022-12-01T05:49:03;102225.59;;;0.25;94.30
76108;BME280;64834;52.516;10.528;2022-12-01T05:51:28;102225.03;;;0.35;93.72
76108;BME280;64834;52.516;10.528;2022-12-01T05:53:53;102227.03;;;0.31;93.73
76108;BME280;64834;52.516;10.528;2022-12-01T05:56:19;102226.47;;;0.19;93.88
76108;BME280;64834;52.516;10.528;2022-12-01T05:58:44;102227.44;;;0.26;93.91
76108;BME280;64834;52.516;10.528;2022-12-01T06:01:10;102222.63;;;0.22;93.76
76108;BME280;64834;52.516;10.528;2022-12-01T06:03:35;102217.47;;;0.37;93.54
76108;BME280;64834;52.516;10.528;2022-12-01T06:06:00;102223.00;;;0.33;93.49
76108;BME280;64834;52.516;10.528;2022-12-01T06:08:26;102228.91;;;0.32;93.46
76108;BME280;64834;52.516;10.528;2022-12-01T06:10:51;102230.91;;;0.27;93.24
76108;BME280;64834;52.516;10.528;2022-12-01T06:13:17;102233.66;;;0.21;93.92
76108;BME280;64834;52.516;10.528;2022-12-01T06:15:42;102230.75;;;0.33;93.83
76108;BME280;64834;52.516;10.528;2022-12-01T06:18:07;102230.91;;;0.34;93.84
76108;BME280;64834;52.516;10.528;2022-12-01T06:20:33;102239.72;;;0.29;93.82
76108;BME280;64834;52.516;10.528;2022-12-01T06:22:58;102234.59;;;0.29;93.66
76108;BME280;64834;52.516;10.528;2022-12-01T06:25:23;102244.34;;;0.39;93.50
76108;BME280;64834;52.516;10.528;2022-12-01T06:27:49;102243.97;;;0.29;93.67
76108;BME280;64834;52.516;10.528;2022-12-01T06:30:14;102244.88;;;0.36;93.96
76108;BME280;64834;52.516;10.528;2022-12-01T06:32:39;102242.13;;;0.20;94.48
76108;BME280;64834;52.516;10.528;2022-12-01T06:35:05;102245.44;;;0.26;94.42
76108;BME280;64834;52.516;10.528;2022-12-01T06:37:31;102245.44;;;0.34;94.20
76108;BME280;64834;52.516;10.528;2022-12-01T06:39:56;102248.94;;;0.27;94.24
76108;BME280;64834;52.516;10.528;2022-12-01T06:42:21;102252.06;;;0.32;94.64
76108;BME280;64834;52.516;10.528;2022-12-01T06:44:47;102257.56;;;0.42;94.19
76108;BME280;64834;52.516;10.528;2022-12-01T06:47:12;102255.00;;;0.42;93.77
76108;BME280;64834;52.516;10.528;2022-12-01T06:49:38;102254.44;;;0.30;93.86
76108;BME280;64834;52.516;10.528;2022-12-01T06:52:03;102257.00;;;0.37;93.84
76108;BME280;64834;52.516;10.528;2022-12-01T06:54:29;102256.66;;;0.34;93.74
76108;BME280;64834;52.516;10.528;2022-12-01T06:56:54;102253.16;;;0.41;93.46
76108;BME280;64834;52.516;10.528;2022-12-01T06:59:20;102255.75;;;0.41;93.60
76108;BME280;64834;52.516;10.528;2022-12-01T07:01:45;102267.34;;;0.44;93.21
76108;BME280;64834;52.516;10.528;2022-12-01T07:04:10;102265.47;;;0.29;93.26
76108;BME280;64834;52.516;10.528;2022-12-01T07:06:36;102265.69;;;0.45;93.04
76108;BME280;64834;52.516;10.528;2022-12-01T07:09:01;102266.22;;;0.35;93.07
76108;BME280;64834;52.516;10.528;2022-12-01T07:11:26;102275.25;;;0.46;92.92
76108;BME280;64834;52.516;10.528;2022-12-01T07:13:55;102273.22;;;0.58;92.26
76108;BME280;64834;52.516;10.528;2022-12-01T07:16:20;102270.66;;;0.50;92.53
76108;BME280;64834;52.516;10.528;2022-12-01T07:18:46;102265.66;;;0.38;93.21
76108;BME280;64834;52.516;10.528;2022-12-01T07:21:12;102266.41;;;0.37;93.38
76108;BME280;64834;52.516;10.528;2022-12-01T07:23:38;102262.00;;;0.36;93.59
76108;BME280;64834;52.516;10.528;2022-12-01T07:26:10;102276.34;;;0.34;93.68
76108;BME280;64834;52.516;10.528;2022-12-01T07:28:36;102269.53;;;0.34;93.78
76108;BME280;64834;52.516;10.528;2022-12-01T07:33:38;102273.75;;;0.41;93.98
76108;BME280;64834;52.516;10.528;2022-12-01T07:36:04;102275.94;;;0.38;94.37
76108;BME280;64834;52.516;10.528;2022-12-01T07:38:34;102273.75;;;0.41;93.94
76108;BME280;64834;52.516;10.528;2022-12-01T07:41:01;102278.19;;;0.35;94.20
76108;BME280;64834;52.516;10.528;2022-12-01T07:43:39;102275.06;;;0.44;94.16
76108;BME280;64834;52.516;10.528;2022-12-01T07:46:06;102275.06;;;0.44;93.98
76108;BME280;64834;52.516;10.528;2022-12-01T07:48:35;102281.13;;;0.45;94.30
76108;BME280;64834;52.516;10.528;2022-12-01T07:51:01;102278.19;;;0.35;94.75
76108;BME280;64834;52.516;10.528;2022-12-01T07:53:27;102283.72;;;0.52;94.22
76108;BME280;64834;52.516;10.528;2022-12-01T07:55:52;102277.44;;;0.43;94.17
76108;BME280;64834;52.516;10.528;2022-12-01T07:58:17;102287.03;;;0.58;93.82
76108;BME280;64834;52.516;10.528;2022-12-01T08:00:43;102284.25;;;0.49;93.77
76108;BME280;64834;52.516;10.528;2022-12-01T08:03:08;102289.78;;;0.45;94.13
76108;BME280;64834;52.516;10.528;2022-12-01T08:05:33;102289.78;;;0.52;93.85
76108;BME280;64834;52.516;10.528;2022-12-01T08:07:59;102295.84;;;0.53;93.95
76108;BME280;64834;52.516;10.528;2022-12-01T08:10:25;102297.88;;;0.56;93.92
76108;BME280;64834;52.516;10.528;2022-12-01T08:12:50;102289.97;;;0.61;93.98
76108;BME280;64834;52.516;10.528;2022-12-01T08:15:15;102294.00;;;0.66;93.66
76108;BME280;64834;52.516;10.528;2022-12-01T08:17:41;102296.59;;;0.66;93.67
76108;BME280;64834;52.516;10.528;2022-12-01T08:20:07;102300.09;;;0.60;93.65
76108;BME280;64834;52.516;10.528;2022-12-01T08:22:32;102306.16;;;0.60;93.76
76108;BME280;64834;52.516;10.528;2022-12-01T08:24:58;102298.44;;;0.60;93.56
76108;BME280;64834;52.516;10.528;2022-12-01T08:27:23;102301.56;;;0.58;93.67
76108;BME280;64834;52.516;10.528;2022-12-01T08:29:48;102311.88;;;0.58;93.66
76108;BME280;64834;52.516;10.528;2022-12-01T08:32:16;102303.41;;;0.66;93.73
76108;BME280;64834;52.516;10.528;2022-12-01T08:34:41;102299.34;;;0.61;93.34
76108;BME280;64834;52.516;10.528;2022-12-01T08:37:06;102307.81;;;0.67;93.49
76108;BME280;64834;52.516;10.528;2022-12-01T08:39:32;102309.81;;;0.62;93.14
76108;BME280;64834;52.516;10.528;2022-12-01T08:41:57;102311.47;;;0.54;93.72
76108;BME280;64834;52.516;10.528;2022-12-01T08:44:22;102312.03;;;0.66;93.97
76108;BME280;64834;52.516;10.528;2022-12-01T08:46:48;102319.03;;;0.81;93.79
76108;BME280;64834;52.516;10.528;2022-12-01T08:49:13;102310.19;;;0.79;92.99
76108;BME280;64834;52.516;10.528;2022-12-01T08:51:38;102315.00;;;0.84;93.05
76108;BME280;64834;52.516;10.528;2022-12-01T08:54:04;102315.91;;;0.84;93.31
76108;BME280;64834;52.516;10.528;2022-12-01T08:56:33;102315.72;;;0.90;92.87
76108;BME280;64834;52.516;10.528;2022-12-01T08:58:58;102320.69;;;0.95;92.73
76108;BME280;64834;52.516;10.528;2022-12-01T09:01:24;102325.31;;;0.84;92.67
76108;BME280;64834;52.516;10.528;2022-12-01T09:03:50;102321.97;;;0.92;92.53
76108;BME280;64834;52.516;10.528;2022-12-01T09:06:40;102318.13;;;0.95;92.30
76108;BME280;64834;52.516;10.528;2022-12-01T09:09:17;102309.09;;;0.85;92.01
76108;BME280;64834;52.516;10.528;2022-12-01T09:11:44;102317.75;;;0.92;92.10
76108;BME280;64834;52.516;10.528;2022-12-01T09:14:11;102327.13;;;0.85;92.17
76108;BME280;64834;52.516;10.528;2022-12-01T09:16:37;102326.94;;;0.97;92.15
76108;BME280;64834;52.516;10.528;2022-12-01T09:19:03;102331.19;;;0.90;92.08
76108;BME280;64834;52.516;10.528;2022-12-01T09:21:30;102329.69;;;1.13;91.71
76108;BME280;64834;52.516;10.528;2022-12-01T09:23:55;102333.75;;;1.11;91.55
76108;BME280;64834;52.516;10.528;2022-12-01T09:26:22;102326.00;;;1.11;91.60
76108;BME280;64834;52.516;10.528;2022-12-01T09:28:59;102331.19;;;0.97;91.54
76108;BME280;64834;52.516;10.528;2022-12-01T09:31:25;102333.94;;;1.05;91.57
76108;BME280;64834;52.516;10.528;2022-12-01T09:33:59;102330.09;;;1.02;91.82
76108;BME280;64834;52.516;10.528;2022-12-01T09:36:26;102331.00;;;1.02;91.60
76108;BME280;64834;52.516;10.528;2022-12-01T09:38:51;102329.34;;;1.03;92.01
76108;BME280;64834;52.516;10.528;2022-12-01T09:46:42;102326.19;;;1.20;90.84
76108;BME280;64834;52.516;10.528;2022-12-01T09:49:15;102317.75;;;1.14;91.20
76108;BME280;64834;52.516;10.528;2022-12-01T09:51:42;102321.59;;;1.03;91.77
76108;BME280;64834;52.516;10.528;2022-12-01T09:54:10;102322.69;;;1.12;91.51
76108;BME280;64834;52.516;10.528;2022-12-01T09:56:48;102319.38;;;1.06;91.35
76108;BME280;64834;52.516;10.528;2022-12-01T09:59:22;102317.19;;;1.02;92.32
76108;BME280;64834;52.516;10.528;2022-12-01T10:01:56;102307.03;;;1.11;92.50
76108;BME280;64834;52.516;10.528;2022-12-01T10:04:32;102305.75;;;1.14;91.54
76108;BME280;64834;52.516;10.528;2022-12-01T10:07:00;102303.91;;;1.13;92.04
76108;BME280;64834;52.516;10.528;2022-12-01T10:09:37;102303.00;;;1.05;91.91
76108;BME280;64834;52.516;10.528;2022-12-01T10:12:12;102300.78;;;1.16;91.77
76108;BME280;64834;52.516;10.528;2022-12-01T10:14:38;102295.06;;;1.11;91.93
76108;BME280;64834;52.516;10.528;2022-12-01T10:17:37;102300.78;;;1.16;91.92
76108;BME280;64834;52.516;10.528;2022-12-01T10:20:13;102294.72;;;1.15;91.61
76108;BME280;64834;52.516;10.528;2022-12-01T10:22:59;102298.19;;;1.23;91.77
76108;BME280;64834;52.516;10.528;2022-12-01T10:25:28;102291.94;;;1.21;91.62
76108;BME280;64834;52.516;10.528;2022-12-01T10:30:50;102295.06;;;1.11;91.62
76108;BME280;64834;52.516;10.528;2022-12-01T10:33:31;102291.03;;;1.20;91.22
76108;BME280;64834;52.516;10.528;2022-12-01T10:35:58;102293.94;;;1.23;90.87
76108;BME280;64834;52.516;10.528;2022-12-01T10:38:34;102293.19;;;1.24;90.37
76108;BME280;64834;52.516;10.528;2022-12-01T10:41:01;102283.09;;;1.26;90.30
76108;BME280;64834;52.516;10.528;2022-12-01T10:43:31;102296.34;;;1.22;90.34
76108;BME280;64834;52.516;10.528;2022-12-01T10:46:12;102284.41;;;1.15;90.66
76108;BME280;64834;52.516;10.528;2022-12-01T10:48:54;102282.72;;;1.23;90.49
76108;BME280;64834;52.516;10.528;2022-12-01T10:51:20;102282.16;;;1.32;90.19
76108;BME280;64834;52.516;10.528;2022-12-01T10:53:47;102281.00;;;1.45;89.33
76108;BME280;64834;52.516;10.528;2022-12-01T10:56:17;102287.44;;;1.41;88.83
76108;BME280;64834;52.516;10.528;2022-12-01T10:58:56;102282.09;;;1.47;88.94
76108;BME280;64834;52.516;10.528;2022-12-01T11:01:27;102280.63;;;1.42;88.91
76108;BME280;64834;52.516;10.528;2022-12-01T11:04:07;102279.13;;;1.44;89.25
76108;BME280;64834;52.516;10.528;2022-12-01T11:06:48;102279.88;;;1.43;89.24
76108;BME280;64834;52.516;10.528;2022-12-01T11:09:19;102278.91;;;1.56;88.96
76108;BME280;64834;52.516;10.528;2022-12-01T11:11:53;102270.63;;;1.59;88.74
76108;BME280;64834;52.516;10.528;2022-12-01T11:14:22;102280.97;;;1.52;89.12
76108;BME280;64834;52.516;10.528;2022-12-01T11:16:50;102272.88;;;1.49;89.25
76108;BME280;64834;52.516;10.528;2022-12-01T11:19:35;102266.63;;;1.47;88.82
76108;BME280;64834;52.516;10.528;2022-12-01T11:22:17;102270.66;;;1.52;89.30
76108;BME280;64834;52.516;10.528;2022-12-01T11:24:55;102270.63;;;1.59;88.79
76108;BME280;64834;52.516;10.528;2022-12-01T11:29:57;102265.59;;;1.68;88.80
76108;BME280;64834;52.516;10.528;2022-12-01T11:32:28;102268.09;;;1.52;89.32
76108;BME280;64834;52.516;10.528;2022-12-01T11:34:58;102268.09;;;1.52;89.53
76108;BME280;64834;52.516;10.528;2022-12-01T11:37:27;102261.44;;;1.54;88.74
76108;BME280;64834;52.516;10.528;2022-12-01T11:39:54;102262.19;;;1.53;89.76
76108;BME280;64834;52.516;10.528;2022-12-01T11:44:48;102259.94;;;1.56;89.42
76108;BME280;64834;52.516;10.528;2022-12-01T11:47:24;102257.19;;;1.54;89.08
76108;BME280;64834;52.516;10.528;2022-12-01T11:49:55;102261.28;;;1.45;89.73
76108;BME280;64834;52.516;10.528;2022-12-01T11:52:31;102259.56;;;1.60;89.36
76108;BME280;64834;52.516;10.528;2022-12-01T11:54:57;102256.31;;;1.47;89.97
76108;BME280;64834;52.516;10.528;2022-12-01T11:57:24;102265.28;;;1.57;88.94
76108;BME280;64834;52.516;10.528;2022-12-01T11:59:50;102254.97;;;1.50;89.39
76108;BME280;64834;52.516;10.528;2022-12-01T12:02:36;102259.97;;;1.49;89.32
76108;BME280;64834;52.516;10.528;2022-12-01T12:13:09;102260.09;;;1.65;88.69
76108;BME280;64834;52.516;10.528;2022-12-01T12:15:59;102253.28;;;1.65;89.47
76108;BME280;64834;52.516;10.528;2022-12-01T12:18:44;102256.78;;;1.66;89.05
76108;BME280;64834;52.516;10.528;2022-12-01T12:27:17;102251.81;;;1.60;89.15
76108;BME280;64834;52.516;10.528;2022-12-01T12:29:56;102249.41;;;1.61;89.19
76108;BME280;64834;52.516;10.528;2022-12-01T12:38:28;102239.91;;;1.46;89.89
76108;BME280;64834;52.516;10.528;2022-12-01T12:45:59;102248.81;;;1.27;90.99
76108;BME280;64834;52.516;10.528;2022-12-01T12:48:42;102250.81;;;1.29;91.15
76108;BME280;64834;52.516;10.528;2022-12-01T12:51:16;102238.66;;;1.35;90.54
76108;BME280;64834;52.516;10.528;2022-12-01T12:53:48;102242.53;;;1.39;90.29
76108;BME280;64834;52.516;10.528;2022-12-01T12:56:18;102248.06;;;1.35;90.37
76108;BME280;64834;52.516;10.528;2022-12-01T12:58:59;102242.16;;;1.36;90.45
76108;BME280;64834;52.516;10.528;2022-12-01T13:01:54;102243.03;;;1.44;90.05
76108;BME280;64834;52.516;10.528;2022-12-01T13:04:31;102243.00;;;1.51;90.26
76108;BME280;64834;52.516;10.528;2022-12-01T13:07:02;102245.59;;;1.44;90.48
76108;BME280;64834;52.516;10.528;2022-12-01T13:09:41;102238.78;;;1.51;90.08
76108;BME280;64834;52.516;10.528;2022-12-01T13:12:23;102240.63;;;1.52;89.96
76108;BME280;64834;52.516;10.528;2022-12-01T13:14:58;102221.03;;;1.61;89.42
76108;BME280;64834;52.516;10.528;2022-12-01T13:20:32;102233.63;;;1.51;89.88
76108;BME280;64834;52.516;10.528;2022-12-01T13:23:00;102228.50;;;1.37;90.62
76108;BME280;64834;52.516;10.528;2022-12-01T13:25:32;102236.41;;;1.46;90.74
76108;BME280;64834;52.516;10.528;2022-12-01T13:28:01;102235.16;;;1.35;90.97
76108;BME280;64834;52.516;10.528;2022-12-01T13:30:28;102230.34;;;1.45;90.64
76108;BME280;64834;52.516;10.528;2022-12-01T13:33:04;102239.50;;;1.57;90.37
76108;BME280;64834;52.516;10.528;2022-12-01T13:35:33;102225.28;;;1.61;90.08
76108;BME280;64834;52.516;10.528;2022-12-01T13:38:28;102237.25;;;1.60;89.99
76108;BME280;64834;52.516;10.528;2022-12-01T13:49:31;102223.19;;;1.35;90.96
76108;BME280;64834;52.516;10.528;2022-12-01T13:52:25;102221.28;;;1.49;90.04
76108;BME280;64834;52.516;10.528;2022-12-01T14:00:38;102227.97;;;1.40;90.58
76108;BME280;64834;52.516;10.528;2022-12-01T14:08:26;102235.28;;;1.44;90.36
76108;BME280;64834;52.516;10.528;2022-12-01T14:11:00;102232.69;;;1.51;90.19
76108;BME280;64834;52.516;10.528;2022-12-01T14:13:27;102233.63;;;1.51;89.81
76108;BME280;64834;52.516;10.528;2022-12-01T14:15:59;102236.00;;;1.50;89.78
76108;BME280;64834;52.516;10.528;2022-12-01T14:18:42;102236.72;;;1.56;89.59
76108;BME280;64834;52.516;10.528;2022-12-01T14:21:10;102244.09;;;1.60;89.43
76108;BME280;64834;52.516;10.528;2022-12-01T14:23:37;102236.59;;;1.47;89.86